createdAt,value
2022-11-30T00:01:53.558Z,8.70
2022-11-30T00:04:20.361Z,8.70
2022-11-30T00:06:47.246Z,8.70
2022-11-30T00:09:13.996Z,8.70
2022-11-30T00:11:40.789Z,8.70
2022-11-30T00:14:07.430Z,8.70
2022-11-30T00:16:34.223Z,8.70
2022-11-30T00:19:01.002Z,8.70
2022-11-30T00:21:27.701Z,8.70
2022-11-30T00:23:54.344Z,8.70
2022-11-30T00:26:23.077Z,8.70
2022-11-30T00:31:36.878Z,8.70
2022-11-30T00:34:03.561Z,8.70
2022-11-30T00:36:30.477Z,8.70
2022-11-30T00:38:57.207Z,8.60
2022-11-30T00:41:24.031Z,8.60
2022-11-30T00:43:50.842Z,8.60
2022-11-30T00:46:17.860Z,8.60
2022-11-30T00:48:44.708Z,8.60
2022-11-30T00:51:12.198Z,8.50
2022-11-30T00:53:39.200Z,8.50
2022-11-30T00:56:06.475Z,8.50
2022-11-30T00:58:34.450Z,8.40
2022-11-30T01:01:01.751Z,8.40
2022-11-30T01:03:32.040Z,8.30
2022-11-30T01:06:05.597Z,8.30
2022-11-30T01:08:32.901Z,8.30
2022-11-30T01:11:05.253Z,8.30
2022-11-30T01:13:31.925Z,8.30
2022-11-30T01:15:58.659Z,8.30
2022-11-30T01:18:25.359Z,8.30
2022-11-30T01:20:52.087Z,8.30
2022-11-30T01:23:18.762Z,8.40
2022-11-30T01:25:53.296Z,8.40
2022-11-30T01:28:19.957Z,8.40
2022-11-30T01:30:55.402Z,8.50
2022-11-30T01:33:22.569Z,8.50
2022-11-30T01:35:49.524Z,8.50
2022-11-30T01:38:16.204Z,8.50
2022-11-30T01:40:49.433Z,8.50
2022-11-30T01:43:16.310Z,8.50
2022-11-30T01:45:42.971Z,8.50
2022-11-30T01:48:10.141Z,8.50
2022-11-30T01:50:37.223Z,8.50
2022-11-30T01:53:05.605Z,8.40
2022-11-30T01:55:32.369Z,8.50
2022-11-30T01:58:01.974Z,8.40
2022-11-30T02:00:28.932Z,8.40
2022-11-30T02:02:56.042Z,8.40
2022-11-30T02:05:23.078Z,8.40
2022-11-30T02:07:50.153Z,8.40
2022-11-30T02:10:18.857Z,8.40
2022-11-30T02:13:04.289Z,8.40
2022-11-30T02:15:34.103Z,8.40
2022-11-30T02:18:11.923Z,8.40
2022-11-30T02:20:57.461Z,8.40
2022-11-30T02:23:24.143Z,8.40
2022-11-30T02:26:03.639Z,8.30
2022-11-30T02:29:01.471Z,8.30
2022-11-30T02:31:42.333Z,8.30
2022-11-30T02:34:11.005Z,8.30
2022-11-30T02:36:37.764Z,8.30
2022-11-30T02:39:07.775Z,8.30
2022-11-30T02:41:38.104Z,8.20
2022-11-30T02:44:06.214Z,8.20
2022-11-30T02:46:47.214Z,8.20
2022-11-30T02:49:20.016Z,8.20
2022-11-30T02:51:48.487Z,8.20
2022-11-30T02:54:15.491Z,8.10
2022-11-30T02:56:42.394Z,8.10
2022-11-30T02:59:09.228Z,8.10
2022-11-30T03:01:36.510Z,8.00
2022-11-30T03:04:03.301Z,8.10
2022-11-30T03:06:30.027Z,8.00
2022-11-30T03:08:56.780Z,8.00
2022-11-30T03:11:23.653Z,8.00
2022-11-30T03:13:50.447Z,8.00
2022-11-30T03:16:17.507Z,8.00
2022-11-30T03:18:44.339Z,8.00
2022-11-30T03:21:11.812Z,8.00
2022-11-30T03:23:38.764Z,8.00
2022-11-30T03:26:05.804Z,8.00
2022-11-30T03:28:32.480Z,8.10
2022-11-30T03:30:59.199Z,8.10
2022-11-30T03:33:26.108Z,8.10
2022-11-30T03:35:59.761Z,8.10
2022-11-30T03:38:26.614Z,8.10
2022-11-30T03:40:59.549Z,8.10
2022-11-30T03:43:26.601Z,8.10
2022-11-30T03:45:53.460Z,8.00
2022-11-30T03:48:20.425Z,8.00
2022-11-30T03:50:52.839Z,8.00
2022-11-30T03:53:20.732Z,8.00
2022-11-30T03:55:51.341Z,8.00
2022-11-30T03:58:18.029Z,8.00
2022-11-30T04:00:44.737Z,8.00
2022-11-30T04:03:11.905Z,7.90
2022-11-30T04:05:38.600Z,8.00
2022-11-30T04:08:05.280Z,7.90
2022-11-30T04:10:31.982Z,7.90
2022-11-30T04:12:58.642Z,7.90
2022-11-30T04:15:25.316Z,7.80
2022-11-30T04:17:51.989Z,7.80
2022-11-30T04:20:18.673Z,7.70
2022-11-30T04:22:45.382Z,7.70
2022-11-30T04:25:12.045Z,7.80
2022-11-30T04:27:38.715Z,7.70
2022-11-30T04:30:06.080Z,7.60
2022-11-30T04:32:32.767Z,7.60
2022-11-30T04:34:59.615Z,7.60
2022-11-30T04:37:26.269Z,7.60
2022-11-30T04:39:52.964Z,7.70
2022-11-30T04:42:19.601Z,7.70
2022-11-30T04:44:46.534Z,7.70
2022-11-30T04:47:13.419Z,7.70
2022-11-30T04:49:40.182Z,7.70
2022-11-30T04:52:06.945Z,7.70
2022-11-30T04:54:33.665Z,7.70
2022-11-30T04:57:00.342Z,7.70
2022-11-30T04:59:26.994Z,7.70
2022-11-30T05:01:54.463Z,7.70
2022-11-30T05:04:21.270Z,7.70
2022-11-30T05:06:48.000Z,7.70
2022-11-30T05:09:14.647Z,7.60
2022-11-30T05:11:41.312Z,7.60
2022-11-30T05:14:08.095Z,7.50
2022-11-30T05:16:34.928Z,7.40
2022-11-30T05:19:01.683Z,7.40
2022-11-30T05:21:28.285Z,7.30
2022-11-30T05:23:54.979Z,7.30
2022-11-30T05:26:21.603Z,7.30
2022-11-30T05:28:48.548Z,7.30
2022-11-30T05:31:15.275Z,7.20
2022-11-30T05:33:41.958Z,7.10
2022-11-30T05:36:10.920Z,7.10
2022-11-30T05:38:37.887Z,7.00
2022-11-30T05:41:04.919Z,7.00
2022-11-30T05:43:31.950Z,7.00
2022-11-30T05:46:02.555Z,7.00
2022-11-30T05:48:29.604Z,7.00
2022-11-30T05:50:56.340Z,7.10
2022-11-30T05:53:23.202Z,7.10
2022-11-30T05:55:49.935Z,7.10
2022-11-30T05:58:16.608Z,7.10
2022-11-30T06:00:43.287Z,7.10
2022-11-30T06:03:10.080Z,7.10
2022-11-30T06:05:36.874Z,7.20
2022-11-30T06:08:03.567Z,7.20
2022-11-30T06:10:30.240Z,7.20
2022-11-30T06:12:57.989Z,7.20
2022-11-30T06:15:24.706Z,7.10
2022-11-30T06:17:51.373Z,7.00
2022-11-30T06:20:18.087Z,6.90
2022-11-30T06:22:45.662Z,6.80
2022-11-30T06:25:12.495Z,6.80
2022-11-30T06:27:39.263Z,6.70
2022-11-30T06:30:06.332Z,6.70
2022-11-30T06:32:33.036Z,6.60
2022-11-30T06:34:59.713Z,6.60
2022-11-30T06:37:32.315Z,6.60
2022-11-30T06:40:06.555Z,6.50
2022-11-30T06:42:34.419Z,6.50
2022-11-30T06:45:01.124Z,6.40
2022-11-30T06:47:28.003Z,6.30
2022-11-30T06:49:54.834Z,6.20
2022-11-30T06:52:21.844Z,6.20
2022-11-30T06:54:49.991Z,6.10
2022-11-30T06:57:16.900Z,6.00
2022-11-30T06:59:43.773Z,6.00
2022-11-30T07:02:17.845Z,5.90
2022-11-30T07:04:47.895Z,5.80
2022-11-30T07:07:14.990Z,5.80
2022-11-30T07:09:41.922Z,5.70
2022-11-30T07:12:08.716Z,5.70
2022-11-30T07:14:35.579Z,5.60
2022-11-30T07:17:04.775Z,5.60
2022-11-30T07:19:31.889Z,5.60
2022-11-30T07:21:58.923Z,5.50
2022-11-30T07:24:47.419Z,5.40
2022-11-30T07:27:14.235Z,5.40
2022-11-30T07:29:40.955Z,5.40
2022-11-30T07:32:07.689Z,5.30
2022-11-30T07:34:34.473Z,5.30
2022-11-30T07:37:01.167Z,5.30
2022-11-30T07:39:27.831Z,5.20
2022-11-30T07:41:54.608Z,5.20
2022-11-30T07:44:21.410Z,5.10
2022-11-30T07:46:48.207Z,5.10
2022-11-30T07:49:15.487Z,5.10
2022-11-30T07:51:42.578Z,5.10
2022-11-30T07:59:25.730Z,5.30
2022-11-30T08:01:55.422Z,5.40
2022-11-30T08:04:22.522Z,5.50
2022-11-30T08:06:49.492Z,5.60
2022-11-30T08:09:20.507Z,5.60
2022-11-30T08:11:48.524Z,5.70
2022-11-30T08:14:15.270Z,5.80
2022-11-30T08:16:44.206Z,6.00
2022-11-30T08:19:11.090Z,6.10
2022-11-30T08:21:38.180Z,6.10
2022-11-30T08:24:05.543Z,6.10
2022-11-30T08:26:33.482Z,6.10
2022-11-30T08:29:01.056Z,6.20
2022-11-30T08:31:35.208Z,6.20
2022-11-30T08:34:04.302Z,6.30
2022-11-30T08:36:31.099Z,6.40
2022-11-30T08:38:59.072Z,6.60
2022-11-30T08:41:26.499Z,6.60
2022-11-30T08:43:53.673Z,6.60
2022-11-30T08:46:49.729Z,6.60
2022-11-30T08:49:25.038Z,6.70
2022-11-30T08:52:16.407Z,6.70
2022-11-30T08:54:43.013Z,6.80
2022-11-30T08:57:09.833Z,6.80
2022-11-30T08:59:39.511Z,6.90
2022-11-30T09:02:08.749Z,6.90
2022-11-30T09:04:35.536Z,7.00
2022-11-30T09:07:02.307Z,7.00
2022-11-30T09:09:29.094Z,7.00
2022-11-30T09:11:56.074Z,7.10
2022-11-30T09:14:22.871Z,7.20
2022-11-30T09:16:49.714Z,7.30
2022-11-30T09:19:16.972Z,7.40
2022-11-30T09:21:51.152Z,7.40
2022-11-30T09:24:18.905Z,7.40
2022-11-30T09:26:45.638Z,7.50
2022-11-30T09:29:12.369Z,7.60
2022-11-30T09:31:39.486Z,7.70
2022-11-30T09:34:06.720Z,7.80
2022-11-30T09:36:34.139Z,7.90
2022-11-30T09:39:00.873Z,8.00
2022-11-30T09:41:51.352Z,8.00
2022-11-30T09:44:28.791Z,8.20
2022-11-30T09:47:01.650Z,8.40
2022-11-30T09:49:35.445Z,8.60
2022-11-30T09:52:05.062Z,8.70
2022-11-30T09:54:42.583Z,9.30
2022-11-30T09:57:10.532Z,9.40
2022-11-30T09:59:42.899Z,9.40
2022-11-30T10:02:28.108Z,9.40
2022-11-30T10:05:34.465Z,9.40
2022-11-30T10:08:12.519Z,9.40
2022-11-30T10:10:41.059Z,9.30
2022-11-30T10:13:24.854Z,9.30
2022-11-30T10:15:51.701Z,9.20
2022-11-30T10:18:38.756Z,9.20
2022-11-30T10:21:05.587Z,9.20
2022-11-30T10:23:32.269Z,9.20
2022-11-30T10:26:03.077Z,9.20
2022-11-30T10:28:48.855Z,9.50
2022-11-30T10:31:16.439Z,9.70
2022-11-30T10:33:45.542Z,9.90
2022-11-30T10:36:15.550Z,9.90
2022-11-30T10:38:46.702Z,9.90
2022-11-30T10:41:25.189Z,9.90
2022-11-30T10:43:54.996Z,9.80
2022-11-30T10:46:22.778Z,9.90
2022-11-30T10:48:59.892Z,9.90
2022-11-30T10:51:27.290Z,9.90
2022-11-30T10:53:57.322Z,9.80
2022-11-30T10:56:25.731Z,9.80
2022-11-30T10:59:28.134Z,9.70
2022-11-30T11:01:55.121Z,9.80
2022-11-30T11:04:23.524Z,9.90
2022-11-30T11:06:55.137Z,10.00
2022-11-30T11:09:33.867Z,10.10
2022-11-30T11:12:02.325Z,10.10
2022-11-30T11:14:32.365Z,10.30
2022-11-30T11:17:01.829Z,10.50
2022-11-30T11:19:42.052Z,10.90
2022-11-30T11:22:16.708Z,10.90
2022-11-30T11:24:44.070Z,10.90
2022-11-30T11:27:45.075Z,11.10
2022-11-30T11:30:16.714Z,11.50
2022-11-30T11:32:57.762Z,12.00
2022-11-30T11:35:56.968Z,12.40
2022-11-30T11:38:26.291Z,12.60
2022-11-30T11:40:58.021Z,12.60
2022-11-30T11:43:25.980Z,12.70
2022-11-30T11:45:57.426Z,12.80
2022-11-30T11:48:29.741Z,13.00
2022-11-30T11:51:06.859Z,13.10
2022-11-30T11:53:51.600Z,12.60
2022-11-30T11:56:24.406Z,12.30
2022-11-30T11:58:56.918Z,12.00
2022-11-30T12:01:42.099Z,11.80
2022-11-30T12:04:21.169Z,11.80
2022-11-30T12:06:50.083Z,11.90
2022-11-30T12:09:19.509Z,11.80
2022-11-30T12:11:54.036Z,11.60
2022-11-30T12:14:20.931Z,11.30
2022-11-30T12:16:51.222Z,11.10
2022-11-30T12:19:37.102Z,11.00
2022-11-30T12:22:24.181Z,11.00
2022-11-30T12:25:00.129Z,11.10
2022-11-30T12:27:31.031Z,11.20
2022-11-30T12:30:00.816Z,11.20
2022-11-30T12:32:46.060Z,11.10
2022-11-30T12:35:19.053Z,10.90
2022-11-30T12:37:47.721Z,10.70
2022-11-30T12:40:20.978Z,10.50
2022-11-30T12:43:07.885Z,10.40
2022-11-30T12:46:05.103Z,10.40
2022-11-30T12:48:46.054Z,10.50
2022-11-30T12:51:28.139Z,10.60
2022-11-30T12:54:22.060Z,10.60
2022-11-30T12:56:51.335Z,10.50
2022-11-30T12:59:47.566Z,10.50
2022-11-30T13:02:23.026Z,10.30
2022-11-30T13:04:58.784Z,10.20
2022-11-30T13:07:45.928Z,10.10
2022-11-30T13:10:12.694Z,9.90
2022-11-30T13:12:43.745Z,9.90
2022-11-30T13:15:15.952Z,9.80
2022-11-30T13:17:46.416Z,9.70
2022-11-30T13:20:31.538Z,9.60
2022-11-30T13:23:03.182Z,9.50
2022-11-30T13:26:06.756Z,9.40
2022-11-30T13:28:21.061Z,9.50
2022-11-30T13:31:13.561Z,9.50
2022-11-30T13:33:49.112Z,9.50
2022-11-30T13:36:24.379Z,9.50
2022-11-30T13:39:09.854Z,9.40
2022-11-30T13:41:47.720Z,9.40
2022-11-30T13:44:34.215Z,9.40
2022-11-30T13:47:07.887Z,9.40
2022-11-30T13:49:35.870Z,9.40
2022-11-30T13:54:51.585Z,9.80
2022-11-30T13:57:24.682Z,9.80
2022-11-30T13:59:52.542Z,9.80
2022-11-30T14:02:36.629Z,9.80
2022-11-30T14:05:19.181Z,9.80
2022-11-30T14:08:06.215Z,9.70
2022-11-30T14:10:36.907Z,9.70
2022-11-30T14:13:05.493Z,9.60
2022-11-30T14:15:38.649Z,9.50
2022-11-30T14:18:08.045Z,9.40
2022-11-30T14:20:38.140Z,9.30
2022-11-30T14:23:10.935Z,9.20
2022-11-30T14:25:40.643Z,9.00
2022-11-30T14:28:09.602Z,8.90
2022-11-30T14:30:39.083Z,8.80
2022-11-30T14:33:15.300Z,8.60
2022-11-30T14:35:49.002Z,8.50
2022-11-30T14:38:23.370Z,8.40
2022-11-30T14:40:51.037Z,8.30
2022-11-30T14:43:18.016Z,8.20
2022-11-30T14:46:01.499Z,8.20
2022-11-30T14:48:31.759Z,8.10
2022-11-30T14:51:00.045Z,8.10
2022-11-30T14:53:39.202Z,8.00
2022-11-30T14:56:15.322Z,7.90
2022-11-30T14:58:49.186Z,7.80
2022-11-30T15:01:24.739Z,7.70
2022-11-30T15:03:56.570Z,7.60
2022-11-30T15:06:30.530Z,7.50
2022-11-30T15:09:14.614Z,7.40
2022-11-30T15:11:45.521Z,7.40
2022-11-30T15:14:36.264Z,7.20
2022-11-30T15:17:13.882Z,7.10
2022-11-30T15:19:47.311Z,7.10
2022-11-30T15:22:21.260Z,7.00
2022-11-30T15:24:54.290Z,6.90
2022-11-30T15:27:23.702Z,6.80
2022-11-30T15:30:00.478Z,6.70
2022-11-30T15:32:27.665Z,6.60
2022-11-30T15:34:56.968Z,6.50
2022-11-30T15:37:33.990Z,6.50
2022-11-30T15:40:02.250Z,6.40
2022-11-30T15:42:44.651Z,6.30
2022-11-30T15:45:52.098Z,6.40
2022-11-30T15:48:37.734Z,6.50
2022-11-30T15:51:22.356Z,6.60
2022-11-30T15:54:10.549Z,6.70
2022-11-30T15:56:40.558Z,6.60
2022-11-30T15:59:07.549Z,6.60
2022-11-30T16:02:11.661Z,6.60
2022-11-30T16:04:59.163Z,6.60
2022-11-30T16:07:31.212Z,6.60
2022-11-30T16:10:45.088Z,6.40
2022-11-30T16:13:14.190Z,6.40
2022-11-30T16:15:44.280Z,6.40
2022-11-30T16:18:19.621Z,6.50
2022-11-30T16:20:58.000Z,6.60
2022-11-30T16:23:26.377Z,6.60
2022-11-30T16:25:53.881Z,6.70
2022-11-30T16:28:21.466Z,6.80
2022-11-30T16:30:48.693Z,6.90
2022-11-30T16:33:16.899Z,6.90
2022-11-30T16:35:57.836Z,6.90
2022-11-30T16:38:25.001Z,6.90
2022-11-30T16:40:54.158Z,7.00
2022-11-30T16:43:22.573Z,6.90
2022-11-30T16:45:51.945Z,6.90
2022-11-30T16:48:20.415Z,6.80
2022-11-30T16:50:49.473Z,6.70
2022-11-30T16:53:16.284Z,6.60
2022-11-30T16:55:43.276Z,6.50
2022-11-30T16:58:10.038Z,6.40
2022-11-30T17:00:37.874Z,6.30
2022-11-30T17:03:10.987Z,6.20
2022-11-30T17:05:37.816Z,6.10
2022-11-30T17:08:05.073Z,6.00
2022-11-30T17:10:31.890Z,6.00
2022-11-30T17:12:58.541Z,5.90
2022-11-30T17:15:25.500Z,5.80
2022-11-30T17:17:52.325Z,5.70
2022-11-30T17:20:19.237Z,5.80
2022-11-30T17:22:46.600Z,6.00
2022-11-30T17:25:15.716Z,6.10
2022-11-30T17:27:42.473Z,6.20
2022-11-30T17:30:12.646Z,6.40
2022-11-30T17:32:39.596Z,6.40
2022-11-30T17:35:09.224Z,6.50
2022-11-30T17:37:36.164Z,6.60
2022-11-30T17:40:04.145Z,6.60
2022-11-30T17:42:31.016Z,6.70
2022-11-30T17:45:02.079Z,6.70
2022-11-30T17:47:28.939Z,6.70
2022-11-30T17:49:56.715Z,6.60
2022-11-30T17:52:25.771Z,6.60
2022-11-30T17:54:52.572Z,6.60
2022-11-30T17:57:19.368Z,6.50
2022-11-30T17:59:46.043Z,6.50
2022-11-30T18:02:12.970Z,6.40
2022-11-30T18:07:21.597Z,6.20
2022-11-30T18:09:50.791Z,6.10
2022-11-30T18:12:17.402Z,6.00
2022-11-30T18:14:47.271Z,6.00
2022-11-30T18:17:16.784Z,6.00
2022-11-30T18:19:45.833Z,5.90
2022-11-30T18:22:12.517Z,5.80
2022-11-30T18:24:39.264Z,5.70
2022-11-30T18:27:06.557Z,5.70
2022-11-30T18:29:35.835Z,5.60
2022-11-30T18:32:02.996Z,5.50
2022-11-30T18:34:36.504Z,5.50
2022-11-30T18:37:09.641Z,5.40
2022-11-30T18:39:48.145Z,5.40
2022-11-30T18:42:14.914Z,5.30
2022-11-30T18:44:41.631Z,5.30
2022-11-30T18:47:08.273Z,5.30
2022-11-30T18:49:35.060Z,5.30
2022-11-30T18:52:03.611Z,5.30
2022-11-30T18:54:31.778Z,5.30
2022-11-30T18:56:58.485Z,5.30
2022-11-30T18:59:25.231Z,5.30
2022-11-30T19:01:52.090Z,5.40
2022-11-30T19:04:18.999Z,5.40
2022-11-30T19:06:50.818Z,5.40
2022-11-30T19:09:19.053Z,5.30
2022-11-30T19:11:45.968Z,5.20
2022-11-30T19:14:20.462Z,5.20
2022-11-30T19:16:47.945Z,5.10
2022-11-30T19:19:14.767Z,5.10
2022-11-30T19:22:00.895Z,5.00
2022-11-30T19:24:30.542Z,4.90
2022-11-30T19:32:24.197Z,4.80
2022-11-30T19:34:50.891Z,4.80
2022-11-30T19:37:23.904Z,4.70
2022-11-30T19:39:53.831Z,4.80
2022-11-30T19:42:20.660Z,4.80
2022-11-30T19:44:52.372Z,4.90
2022-11-30T19:47:21.920Z,4.90
2022-11-30T19:49:55.065Z,4.80
2022-11-30T19:52:39.290Z,4.70
2022-11-30T19:55:06.816Z,4.70
2022-11-30T19:57:34.973Z,4.60
2022-11-30T20:00:22.247Z,4.60
2022-11-30T20:02:51.952Z,4.50
2022-11-30T20:05:27.598Z,4.50
2022-11-30T20:07:57.142Z,4.50
2022-11-30T20:10:29.082Z,4.50
2022-11-30T20:13:09.088Z,4.40
2022-11-30T20:15:45.736Z,4.40
2022-11-30T20:18:23.766Z,4.40
2022-11-30T20:20:50.565Z,4.40
2022-11-30T20:23:46.273Z,4.50
2022-11-30T20:26:16.785Z,4.50
2022-11-30T20:28:43.960Z,4.50
2022-11-30T20:31:31.078Z,4.50
2022-11-30T20:33:58.627Z,4.50
2022-11-30T20:36:27.221Z,4.50
2022-11-30T20:38:54.202Z,4.40
2022-11-30T20:41:21.869Z,4.40
2022-11-30T20:43:48.859Z,4.50
2022-11-30T20:46:17.003Z,4.50
2022-11-30T20:48:44.448Z,4.60
2022-11-30T20:54:19.541Z,4.80
2022-11-30T20:57:05.067Z,4.90
2022-11-30T20:59:32.114Z,4.90
2022-11-30T21:02:03.228Z,4.90
2022-11-30T21:04:34.276Z,4.90
2022-11-30T21:07:01.107Z,5.00
2022-11-30T21:09:28.366Z,5.00
2022-11-30T21:11:57.418Z,5.00
2022-11-30T21:14:26.216Z,5.00
2022-11-30T21:16:56.485Z,4.90
2022-11-30T21:19:23.252Z,4.90
2022-11-30T21:22:11.472Z,4.90
2022-11-30T21:24:38.362Z,4.90
2022-11-30T21:27:11.143Z,4.90
2022-11-30T21:29:37.897Z,4.80
2022-11-30T21:32:04.742Z,4.80
2022-11-30T21:34:31.601Z,4.70
2022-11-30T21:36:58.511Z,4.70
2022-11-30T21:39:27.756Z,4.60
2022-11-30T21:41:54.511Z,4.60
2022-11-30T21:44:22.012Z,4.60
2022-11-30T21:46:50.305Z,4.50
2022-11-30T21:49:27.298Z,4.50
2022-11-30T21:51:54.179Z,4.40
2022-11-30T21:54:23.977Z,4.40
2022-11-30T21:56:53.925Z,4.40
2022-11-30T21:59:20.779Z,4.30
2022-11-30T22:01:50.483Z,4.30
2022-11-30T22:04:36.682Z,4.20
2022-11-30T22:07:03.378Z,4.20
2022-11-30T22:09:32.843Z,4.10
2022-11-30T22:11:59.604Z,4.10
2022-11-30T22:14:27.094Z,4.10
2022-11-30T22:16:56.295Z,4.00
2022-11-30T22:19:23.045Z,4.00
2022-11-30T22:21:50.454Z,3.90
2022-11-30T22:24:17.279Z,3.90
2022-11-30T22:26:45.374Z,3.90
2022-11-30T22:29:16.921Z,3.90
2022-11-30T22:31:44.882Z,3.90
2022-11-30T22:34:41.118Z,3.80
2022-11-30T22:37:08.021Z,3.80
2022-11-30T22:39:35.090Z,3.80
2022-11-30T22:42:05.029Z,3.80
2022-11-30T22:44:32.035Z,3.70
2022-11-30T22:46:59.850Z,3.70
2022-11-30T22:49:26.620Z,3.80
2022-11-30T22:51:53.444Z,3.80
2022-11-30T22:54:20.332Z,3.80
2022-11-30T22:56:47.258Z,3.80
2022-11-30T22:59:14.651Z,3.80
2022-11-30T23:01:45.672Z,3.80
2022-11-30T23:04:15.922Z,3.90
2022-11-30T23:06:43.361Z,3.80
2022-11-30T23:09:14.428Z,3.80
2022-11-30T23:11:41.485Z,3.80
2022-11-30T23:14:09.766Z,3.70
2022-11-30T23:16:40.215Z,3.70
2022-11-30T23:19:07.330Z,3.70
2022-11-30T23:21:41.498Z,3.70
2022-11-30T23:24:15.180Z,3.70
2022-11-30T23:26:42.911Z,3.70
2022-11-30T23:29:14.114Z,3.70
2022-11-30T23:31:42.497Z,3.70
2022-11-30T23:34:11.703Z,3.70
2022-11-30T23:36:38.924Z,3.70
2022-11-30T23:39:07.364Z,3.70
2022-11-30T23:41:34.184Z,3.70
2022-11-30T23:44:06.073Z,3.80
2022-11-30T23:46:35.641Z,3.80
2022-11-30T23:49:02.715Z,3.80
2022-11-30T23:51:29.629Z,3.80
2022-11-30T23:53:59.495Z,3.90
2022-11-30T23:56:26.323Z,3.90
2022-11-30T23:58:53.272Z,3.90
